Time;durP1;ratioP1;P1;durP2;ratioP2;P2;SDS_P1;SDS_P2;PMS_P1;PMS_P2;Temp;Humidity;BMP_temperature;BMP_pressure;BME280_temperature;BME280_humidity;BME280_pressure;Samples;Min_cycle;Max_cycle;Signal;HPM_P1;HPM_P2
2023/03/04 00:00:31;;;;;;;16.53;9.47;;;3.20;99.90;;;;;;5077896;28;20446;-59
2023/03/04 00:02:58;;;;;;;30.70;10.40;;;3.10;99.90;;;;;;5077778;28;20450;-61
2023/03/04 00:05:25;;;;;;;16.67;7.10;;;3.10;99.90;;;;;;5077377;28;20475;-57
2023/03/04 00:07:52;;;;;;;30.57;8.97;;;3.00;99.90;;;;;;5077355;28;20440;-58
2023/03/04 00:10:19;;;;;;;19.10;7.60;;;3.00;99.90;;;;;;5076927;28;20454;-60
2023/03/04 00:12:48;;;;;;;26.57;9.40;;;3.00;99.90;;;;;;5078814;28;20455;-60
2023/03/04 00:15:15;;;;;;;30.03;13.33;;;3.00;99.90;;;;;;5079455;28;20483;-61
2023/03/04 00:17:44;;;;;;;17.77;10.90;;;3.00;99.90;;;;;;5079784;28;20482;-63
2023/03/04 00:20:17;;;;;;;20.93;10.27;;;3.00;99.90;;;;;;5079383;28;20475;-58
2023/03/04 00:22:44;;;;;;;22.57;8.90;;;3.10;99.90;;;;;;5079566;28;20424;-66
2023/03/04 00:25:11;;;;;;;16.00;9.70;;;3.10;99.90;;;;;;5079610;28;20455;-60
2023/03/04 00:27:41;;;;;;;17.50;7.77;;;3.10;99.90;;;;;;5079139;28;20483;-66
2023/03/04 00:30:09;;;;;;;20.47;10.27;;;3.10;99.90;;;;;;5079718;28;20431;-59
2023/03/04 00:32:36;;;;;;;19.00;7.57;;;3.10;99.90;;;;;;5079727;28;20489;-62
2023/03/04 00:35:05;;;;;;;21.37;8.97;;;3.10;99.90;;;;;;5079241;28;20505;-60
2023/03/04 00:37:32;;;;;;;24.33;8.93;;;3.10;99.90;;;;;;5079531;28;20427;-61
2023/03/04 00:39:58;;;;;;;15.30;6.67;;;3.20;99.90;;;;;;5080365;28;20470;-60
2023/03/04 00:42:25;;;;;;;13.13;6.30;;;3.10;99.90;;;;;;5080206;28;20447;-61
2023/03/04 00:44:52;;;;;;;12.53;7.23;;;3.20;99.90;;;;;;5079666;28;20459;-59
2023/03/04 00:47:21;;;;;;;24.23;8.67;;;3.20;99.90;;;;;;5080029;28;20530;-60
2023/03/04 00:49:51;;;;;;;16.17;8.80;;;3.20;99.90;;;;;;5079425;28;20448;-65
2023/03/04 00:52:19;;;;;;;17.80;9.50;;;3.20;99.90;;;;;;5079190;28;20446;-61
2023/03/04 00:54:46;;;;;;;9.30;5.50;;;3.20;99.90;;;;;;5079230;28;20498;-62
2023/03/04 00:57:13;;;;;;;18.83;4.90;;;3.10;99.90;;;;;;5079338;28;20432;-64
2023/03/04 00:59:42;;;;;;;14.73;5.63;;;3.20;99.90;;;;;;5079363;28;20454;-58
2023/03/04 01:02:09;;;;;;;15.23;6.40;;;3.20;99.90;;;;;;5079698;28;20503;-59
2023/03/04 01:04:36;;;;;;;19.63;8.83;;;3.20;99.90;;;;;;5079079;28;20451;-57
2023/03/04 01:07:03;;;;;;;24.00;10.50;;;3.20;99.90;;;;;;5079262;28;20469;-64
2023/03/04 01:09:35;;;;;;;23.60;7.50;;;3.20;99.90;;;;;;5079371;28;20427;-62
2023/03/04 01:12:01;;;;;;;20.20;7.40;;;3.20;99.90;;;;;;5079808;28;20462;-54
2023/03/04 01:14:28;;;;;;;17.90;7.77;;;3.20;99.90;;;;;;5079762;28;20430;-56
2023/03/04 01:16:55;;;;;;;14.87;7.70;;;3.10;99.90;;;;;;5079738;28;20430;-61
2023/03/04 01:19:22;;;;;;;11.77;6.97;;;3.20;99.90;;;;;;5079516;28;20471;-60
2023/03/04 01:21:49;;;;;;;14.33;6.30;;;3.20;99.90;;;;;;5078819;28;20431;-62
2023/03/04 01:24:16;;;;;;;10.83;5.93;;;3.20;99.90;;;;;;5078362;28;20440;-64
2023/03/04 01:26:44;;;;;;;22.10;7.57;;;3.20;99.90;;;;;;5077705;28;20443;-61
2023/03/04 01:29:11;;;;;;;15.40;7.47;;;3.30;99.90;;;;;;5077635;28;20482;-64
2023/03/04 01:31:38;;;;;;;16.63;7.97;;;3.20;99.90;;;;;;5077270;28;20475;-62
2023/03/04 01:34:05;;;;;;;11.93;7.40;;;3.30;99.90;;;;;;5077539;28;20463;-62
2023/03/04 01:36:34;;;;;;;12.60;6.13;;;3.30;99.90;;;;;;5077548;28;20467;-63
2023/03/04 01:39:01;;;;;;;9.93;5.17;;;3.30;99.90;;;;;;5078044;28;20439;-63
2023/03/04 01:41:28;;;;;;;14.67;5.77;;;3.30;99.90;;;;;;5078393;28;20443;-59
2023/03/04 01:44:01;;;;;;;12.03;7.13;;;3.30;99.90;;;;;;5077938;28;20439;-60
2023/03/04 01:46:31;;;;;;;12.70;6.87;;;3.30;99.90;;;;;;5077354;28;20455;-66
2023/03/04 01:48:59;;;;;;;10.10;4.53;;;3.40;99.90;;;;;;5077788;28;20439;-63
2023/03/04 01:51:28;;;;;;;9.30;4.90;;;3.40;99.90;;;;;;5077630;28;20454;-63
2023/03/04 01:53:56;;;;;;;19.63;7.90;;;3.50;99.90;;;;;;5076876;28;20606;-64
2023/03/04 01:56:24;;;;;;;16.00;8.10;;;3.50;99.90;;;;;;5076545;28;20479;-62
2023/03/04 01:59:14;;;;;;;12.47;5.23;;;3.50;99.90;;;;;;5077024;28;20450;-64
2023/03/04 02:01:43;;;;;;;11.80;4.23;;;3.60;99.90;;;;;;5076406;28;20410;-62
2023/03/04 02:04:10;;;;;;;12.20;5.10;;;3.60;99.90;;;;;;5076503;28;20446;-60
2023/03/04 02:06:39;;;;;;;9.13;4.07;;;3.70;99.90;;;;;;5076424;28;20455;-63
2023/03/04 02:09:07;;;;;;;13.07;5.67;;;3.70;99.90;;;;;;5076378;28;20434;-65
2023/03/04 02:11:35;;;;;;;9.00;4.60;;;3.70;99.90;;;;;;5076376;28;20446;-64
2023/03/04 02:14:02;;;;;;;12.87;6.23;;;3.70;99.90;;;;;;5076356;28;20464;-64
2023/03/04 02:16:31;;;;;;;13.90;5.47;;;3.80;99.90;;;;;;5075981;28;20498;-64
2023/03/04 02:18:59;;;;;;;13.63;4.80;;;3.90;99.90;;;;;;5076444;28;20478;-63
2023/03/04 02:21:28;;;;;;;9.80;5.23;;;3.90;99.90;;;;;;5076778;28;20451;-65
2023/03/04 02:24:03;;;;;;;8.10;3.20;;;3.90;99.90;;;;;;5076958;28;20439;-57
2023/03/04 02:26:33;;;;;;;17.60;3.23;;;3.90;99.90;;;;;;5077077;28;20462;-61
2023/03/04 02:29:02;;;;;;;7.27;3.83;;;3.80;99.90;;;;;;5077301;28;20438;-56
2023/03/04 02:31:32;;;;;;;9.73;3.77;;;3.90;99.90;;;;;;5077367;28;20467;-59
2023/03/04 02:34:02;;;;;;;19.40;4.70;;;3.90;99.90;;;;;;5077135;28;20447;-62
2023/03/04 02:36:30;;;;;;;5.60;3.97;;;3.90;99.90;;;;;;5077323;28;20478;-58
2023/03/04 02:39:02;;;;;;;8.33;3.80;;;3.90;99.90;;;;;;5078090;28;20435;-61
2023/03/04 02:41:31;;;;;;;11.13;4.63;;;4.00;99.90;;;;;;5077548;28;20486;-60
2023/03/04 02:43:58;;;;;;;10.77;5.17;;;4.00;99.90;;;;;;5077597;28;20408;-63
2023/03/04 02:46:26;;;;;;;13.33;4.50;;;4.10;99.90;;;;;;5077399;28;20435;-63
2023/03/04 02:48:53;;;;;;;10.83;3.93;;;4.10;99.90;;;;;;5076469;28;20454;-62
2023/03/04 02:51:20;;;;;;;10.40;5.20;;;4.10;99.90;;;;;;5076452;28;20435;-65
2023/03/04 02:53:47;;;;;;;19.03;5.27;;;4.20;99.90;;;;;;5076362;28;20470;-59
2023/03/04 02:56:15;;;;;;;12.13;3.80;;;4.20;99.90;;;;;;5076327;28;20543;-61
2023/03/04 02:58:43;;;;;;;17.50;4.07;;;4.20;99.90;;;;;;5075892;28;20523;-64
2023/03/04 03:01:10;;;;;;;6.70;3.70;;;4.30;99.90;;;;;;5076406;28;20470;-62
2023/03/04 03:03:37;;;;;;;11.07;4.00;;;4.30;99.90;;;;;;5075923;28;20451;-62
2023/03/04 03:06:04;;;;;;;10.47;4.63;;;4.30;99.90;;;;;;5076077;28;20450;-63
2023/03/04 03:08:31;;;;;;;5.37;3.33;;;4.30;99.90;;;;;;5075925;28;20467;-64
2023/03/04 03:10:58;;;;;;;8.83;4.90;;;4.30;99.90;;;;;;5076008;28;20482;-62
2023/03/04 03:13:25;;;;;;;9.87;2.77;;;4.30;99.90;;;;;;5075857;28;20442;-64
2023/03/04 03:15:53;;;;;;;14.37;5.67;;;4.30;99.90;;;;;;5075326;28;20479;-61
2023/03/04 03:18:20;;;;;;;9.83;3.73;;;4.30;99.90;;;;;;5075071;28;20467;-62
2023/03/04 03:20:49;;;;;;;26.27;5.70;;;4.30;99.90;;;;;;5075494;28;20468;-64
2023/03/04 03:23:16;;;;;;;4.63;2.40;;;4.40;99.90;;;;;;5076591;28;20427;-60
2023/03/04 03:25:43;;;;;;;7.77;3.73;;;4.40;99.90;;;;;;5076589;28;20435;-58
2023/03/04 03:28:10;;;;;;;17.43;4.27;;;4.30;99.90;;;;;;5076560;28;20435;-56
2023/03/04 03:30:37;;;;;;;14.63;5.40;;;4.40;99.90;;;;;;5076426;28;20443;-64
2023/03/04 03:33:05;;;;;;;7.20;3.97;;;4.40;99.90;;;;;;5075356;28;20463;-60
2023/03/04 03:35:32;;;;;;;8.13;3.83;;;4.40;99.90;;;;;;5076156;28;20505;-64
2023/03/04 03:37:59;;;;;;;8.20;3.30;;;4.40;99.90;;;;;;5075968;28;20610;-61
2023/03/04 03:40:26;;;;;;;5.80;2.60;;;4.40;99.90;;;;;;5076111;28;20443;-62
2023/03/04 03:42:53;;;;;;;9.50;3.80;;;4.30;99.90;;;;;;5076014;28;20471;-64
2023/03/04 03:45:20;;;;;;;5.57;2.50;;;4.30;99.90;;;;;;5075985;28;20492;-61
2023/03/04 03:47:47;;;;;;;9.80;3.50;;;4.30;99.90;;;;;;5079415;28;20435;-60
2023/03/04 03:50:15;;;;;;;5.87;3.30;;;4.30;99.90;;;;;;5078674;28;20423;-60
2023/03/04 03:52:42;;;;;;;7.43;3.50;;;4.30;99.90;;;;;;5079365;28;20427;-61
2023/03/04 03:55:10;;;;;;;4.13;2.40;;;4.30;99.90;;;;;;5078536;28;20467;-62
2023/03/04 03:57:36;;;;;;;10.17;3.93;;;4.30;99.90;;;;;;5078843;28;20427;-64
2023/03/04 04:00:05;;;;;;;4.87;2.43;;;4.30;99.90;;;;;;5078835;28;20506;-65
2023/03/04 04:02:31;;;;;;;9.37;2.93;;;4.30;99.90;;;;;;5078712;28;20435;-61
2023/03/04 04:04:58;;;;;;;8.00;3.43;;;4.30;99.90;;;;;;5078445;28;20454;-63
2023/03/04 04:07:27;;;;;;;14.00;3.60;;;4.40;99.90;;;;;;5079060;28;20431;-60
2023/03/04 04:09:53;;;;;;;12.70;3.50;;;4.40;99.90;;;;;;5078052;28;20431;-66
2023/03/04 04:12:20;;;;;;;5.33;2.23;;;4.40;99.90;;;;;;5078414;28;20442;-65
2023/03/04 04:14:47;;;;;;;6.50;3.97;;;4.40;99.90;;;;;;5078891;28;20467;-64
2023/03/04 04:17:16;;;;;;;4.83;2.40;;;4.40;99.90;;;;;;5079338;28;20561;-62
2023/03/04 04:19:43;;;;;;;5.73;2.70;;;4.40;99.90;;;;;;5079582;28;20450;-58
2023/03/04 04:22:15;;;;;;;10.90;4.40;;;4.40;99.90;;;;;;5079241;28;20507;-61
2023/03/04 04:24:43;;;;;;;12.93;4.30;;;4.40;99.90;;;;;;5079406;28;20439;-64
2023/03/04 04:27:11;;;;;;;6.20;3.10;;;4.40;99.90;;;;;;5079339;28;20435;-57
2023/03/04 04:29:38;;;;;;;5.77;3.23;;;4.40;99.90;;;;;;5080179;28;20459;-59
2023/03/04 04:32:05;;;;;;;17.50;3.30;;;4.50;99.90;;;;;;5078451;28;20470;-63
2023/03/04 04:34:32;;;;;;;5.23;3.17;;;4.40;99.90;;;;;;5078134;28;20478;-62
2023/03/04 04:36:59;;;;;;;13.27;3.50;;;4.40;99.90;;;;;;5078137;28;20490;-61
2023/03/04 04:39:26;;;;;;;11.37;3.43;;;4.40;99.90;;;;;;5077489;28;20928;-63
2023/03/04 04:41:54;;;;;;;13.80;3.60;;;4.40;99.90;;;;;;5078087;28;20439;-62
2023/03/04 04:44:21;;;;;;;5.60;3.37;;;4.50;99.90;;;;;;5077500;28;20435;-65
2023/03/04 04:46:48;;;;;;;11.63;3.50;;;4.50;99.90;;;;;;5077720;28;20432;-63
2023/03/04 04:49:15;;;;;;;11.50;3.93;;;4.50;99.90;;;;;;5077404;28;20459;-65
2023/03/04 04:51:42;;;;;;;12.10;4.07;;;4.50;99.90;;;;;;5077683;28;20443;-63
2023/03/04 04:54:08;;;;;;;3.50;2.90;;;4.50;99.90;;;;;;5078019;28;20459;-64
2023/03/04 04:56:40;;;;;;;5.60;2.53;;;4.50;99.90;;;;;;5077633;28;20482;-60
2023/03/04 04:59:12;;;;;;;7.53;3.57;;;4.50;99.90;;;;;;5077852;28;20419;-62
2023/03/04 05:01:40;;;;;;;7.83;2.53;;;4.50;99.90;;;;;;5077686;28;20455;-63
2023/03/04 05:04:06;;;;;;;13.90;3.30;;;4.50;99.90;;;;;;5078424;28;20461;-62
2023/03/04 05:06:33;;;;;;;3.53;3.20;;;4.50;99.90;;;;;;5077624;28;20439;-57
2023/03/04 05:09:00;;;;;;;15.10;3.50;;;4.50;99.90;;;;;;5077971;28;20439;-59
2023/03/04 05:11:28;;;;;;;9.43;3.13;;;4.50;99.90;;;;;;5078107;28;20450;-63
2023/03/04 05:13:54;;;;;;;35.20;3.80;;;4.50;99.90;;;;;;5077669;28;20443;-64
2023/03/04 05:16:23;;;;;;;9.27;3.00;;;4.60;99.90;;;;;;5077460;28;20506;-63
2023/03/04 05:18:52;;;;;;;9.63;3.37;;;4.60;99.90;;;;;;5076843;28;20460;-61
2023/03/04 05:21:20;;;;;;;6.50;2.50;;;4.60;99.90;;;;;;5076815;28;20442;-63
2023/03/04 05:23:48;;;;;;;10.77;3.40;;;4.70;99.90;;;;;;5076868;28;20475;-65
2023/03/04 05:26:17;;;;;;;9.53;3.17;;;4.70;99.90;;;;;;5077010;28;20928;-65
2023/03/04 05:28:45;;;;;;;6.33;3.07;;;4.70;99.90;;;;;;5076851;28;20463;-63
2023/03/04 05:31:12;;;;;;;10.03;2.90;;;4.60;99.90;;;;;;5076988;28;20463;-65
2023/03/04 05:33:40;;;;;;;7.27;3.53;;;4.70;99.90;;;;;;5076689;28;20439;-65
2023/03/04 05:36:08;;;;;;;9.20;2.00;;;4.70;99.90;;;;;;5077362;28;20486;-64
2023/03/04 05:38:35;;;;;;;4.07;2.00;;;4.70;99.90;;;;;;5076676;28;20443;-59
2023/03/04 05:41:04;;;;;;;17.10;2.57;;;4.70;99.90;;;;;;5076240;28;20463;-63
2023/03/04 05:43:34;;;;;;;5.50;2.40;;;4.80;99.90;;;;;;5077581;28;20446;-65
2023/03/04 05:46:02;;;;;;;8.37;2.73;;;4.80;99.90;;;;;;5076875;28;20519;-60
2023/03/04 05:48:29;;;;;;;8.50;2.27;;;4.80;99.90;;;;;;5076628;28;20426;-62
2023/03/04 05:50:59;;;;;;;2.17;1.97;;;4.80;99.90;;;;;;5076627;28;20427;-63
2023/03/04 05:53:27;;;;;;;4.40;1.80;;;4.80;99.90;;;;;;5076382;28;20876;-62
2023/03/04 05:55:54;;;;;;;13.63;3.30;;;4.80;99.90;;;;;;5076507;28;20474;-61
2023/03/04 05:58:21;;;;;;;5.63;1.90;;;4.80;99.90;;;;;;5075662;28;20474;-64
2023/03/04 06:00:48;;;;;;;4.53;1.73;;;4.80;99.90;;;;;;5076327;28;20443;-65
2023/03/04 06:03:17;;;;;;;20.47;2.10;;;4.80;99.90;;;;;;5075445;28;20531;-64
2023/03/04 06:05:44;;;;;;;6.10;2.30;;;4.80;99.90;;;;;;5076146;28;20450;-66
2023/03/04 06:08:13;;;;;;;7.07;2.30;;;4.80;99.90;;;;;;5076108;28;20471;-61
2023/03/04 06:10:40;;;;;;;6.47;2.03;;;4.80;99.90;;;;;;5074819;28;20423;-63
2023/03/04 06:13:08;;;;;;;4.80;2.10;;;4.80;99.90;;;;;;5076117;28;20454;-63
2023/03/04 06:15:36;;;;;;;4.57;2.67;;;4.90;99.90;;;;;;5076001;28;20447;-62
2023/03/04 06:18:03;;;;;;;7.80;2.47;;;4.90;99.90;;;;;;5076330;28;20497;-63
2023/03/04 06:20:30;;;;;;;3.03;1.67;;;4.80;99.90;;;;;;5076354;28;20459;-66
2023/03/04 06:22:57;;;;;;;1.73;1.07;;;4.90;99.90;;;;;;5076015;28;20439;-63
2023/03/04 06:25:26;;;;;;;2.70;1.93;;;4.80;99.90;;;;;;5076267;28;20487;-61
2023/03/04 06:27:53;;;;;;;3.57;1.60;;;4.80;99.90;;;;;;5076325;28;20467;-64
2023/03/04 06:30:20;;;;;;;4.43;2.13;;;4.90;99.90;;;;;;5076507;28;20479;-61
2023/03/04 06:32:47;;;;;;;16.60;2.17;;;4.90;99.90;;;;;;5076284;28;20443;-65
2023/03/04 06:35:16;;;;;;;11.37;2.37;;;4.90;99.90;;;;;;5076947;28;20450;-62
2023/03/04 06:37:46;;;;;;;2.00;1.60;;;4.90;99.90;;;;;;5076730;28;20494;-63
2023/03/04 06:40:13;;;;;;;6.27;1.80;;;4.90;99.90;;;;;;5076617;28;20459;-53
2023/03/04 06:42:42;;;;;;;5.70;2.13;;;4.90;99.90;;;;;;5076698;28;20443;-58
2023/03/04 06:45:10;;;;;;;6.87;2.13;;;4.90;99.90;;;;;;5077958;28;20443;-56
2023/03/04 06:47:37;;;;;;;4.73;2.03;;;4.90;99.90;;;;;;5077830;28;20459;-59
2023/03/04 06:50:05;;;;;;;2.50;1.53;;;4.90;99.90;;;;;;5078396;28;20440;-61
2023/03/04 06:52:32;;;;;;;4.23;2.37;;;4.90;99.90;;;;;;5078072;28;20474;-59
2023/03/04 06:54:59;;;;;;;6.00;1.70;;;4.90;99.90;;;;;;5077352;28;20471;-60
2023/03/04 06:57:26;;;;;;;3.20;2.03;;;4.90;99.90;;;;;;5075799;28;20470;-63
2023/03/04 06:59:54;;;;;;;6.93;1.60;;;5.00;99.90;;;;;;5075558;28;20467;-64
2023/03/04 07:02:21;;;;;;;4.70;1.37;;;5.00;99.90;;;;;;5075531;28;20440;-64
2023/03/04 07:04:48;;;;;;;3.23;1.63;;;5.00;99.90;;;;;;5075465;28;20467;-61
2023/03/04 07:07:15;;;;;;;5.93;2.40;;;5.00;99.90;;;;;;5076011;28;20451;-62
2023/03/04 07:09:42;;;;;;;2.60;1.90;;;5.00;99.90;;;;;;5075375;28;20435;-62
2023/03/04 07:12:09;;;;;;;7.40;2.33;;;5.00;99.90;;;;;;5076143;28;20443;-64
2023/03/04 07:14:36;;;;;;;4.43;1.80;;;5.00;99.90;;;;;;5075938;28;20447;-64
2023/03/04 07:17:04;;;;;;;6.33;2.23;;;5.00;99.90;;;;;;5075319;28;20478;-62
2023/03/04 07:19:31;;;;;;;8.87;2.83;;;5.00;99.90;;;;;;5076058;28;20444;-65
2023/03/04 07:21:58;;;;;;;5.43;2.47;;;5.00;99.90;;;;;;5078697;28;20463;-63
2023/03/04 07:24:24;;;;;;;10.23;2.53;;;4.90;99.90;;;;;;5080097;28;20451;-61
2023/03/04 07:26:51;;;;;;;8.60;2.10;;;4.90;99.90;;;;;;5079239;28;20455;-62
2023/03/04 07:29:18;;;;;;;6.47;3.13;;;4.90;99.90;;;;;;5079706;28;20411;-64
2023/03/04 07:31:45;;;;;;;4.70;2.17;;;5.00;99.90;;;;;;5079429;28;20439;-62
2023/03/04 07:34:14;;;;;;;2.77;1.60;;;5.10;99.90;;;;;;5079473;28;20455;-60
2023/03/04 07:36:44;;;;;;;6.20;2.50;;;5.10;99.90;;;;;;5078984;28;20483;-66
2023/03/04 07:39:12;;;;;;;8.20;2.53;;;5.10;99.90;;;;;;5079105;28;20459;-63
2023/03/04 07:41:40;;;;;;;2.87;2.03;;;5.10;99.90;;;;;;5079055;28;20427;-65
2023/03/04 07:44:08;;;;;;;12.00;2.13;;;5.10;99.90;;;;;;5079018;28;20458;-65
2023/03/04 07:46:35;;;;;;;8.43;2.10;;;5.20;99.90;;;;;;5078901;28;20455;-62
2023/03/04 07:49:04;;;;;;;8.13;2.13;;;5.20;99.90;;;;;;5078748;28;20443;-64
2023/03/04 07:51:33;;;;;;;5.83;1.67;;;5.20;99.90;;;;;;5079247;28;20404;-63
2023/03/04 07:54:01;;;;;;;6.30;2.13;;;5.20;99.90;;;;;;5079278;28;20447;-65
2023/03/04 07:56:30;;;;;;;10.53;2.63;;;5.20;99.90;;;;;;5078635;28;20477;-64
2023/03/04 07:58:57;;;;;;;3.60;2.03;;;5.30;99.90;;;;;;5079059;28;20455;-63
2023/03/04 08:01:26;;;;;;;3.60;2.00;;;5.40;99.90;;;;;;5079116;28;20466;-66
2023/03/04 08:03:53;;;;;;;3.17;2.87;;;5.50;99.90;;;;;;5078786;28;20443;-66
2023/03/04 08:06:24;;;;;;;4.23;2.93;;;5.50;99.90;;;;;;5078483;28;20510;-61
2023/03/04 08:08:57;;;;;;;9.33;3.23;;;5.50;99.90;;;;;;5078176;28;20506;-61
2023/03/04 08:11:24;;;;;;;3.47;2.23;;;5.60;99.90;;;;;;5078483;28;20430;-65
2023/03/04 08:13:52;;;;;;;8.40;2.60;;;5.50;99.90;;;;;;5078824;28;20423;-64
2023/03/04 08:16:21;;;;;;;3.20;2.27;;;5.40;99.90;;;;;;5079014;28;20422;-62
2023/03/04 08:18:49;;;;;;;3.10;2.23;;;5.40;99.90;;;;;;5078406;28;20542;-59
2023/03/04 08:21:18;;;;;;;4.33;3.13;;;5.50;99.90;;;;;;5077908;28;20474;-64
2023/03/04 08:23:46;;;;;;;6.83;2.30;;;5.40;99.90;;;;;;5078153;28;20464;-63
2023/03/04 08:26:17;;;;;;;6.77;2.37;;;5.40;99.90;;;;;;5078546;28;20912;-63
2023/03/04 08:28:47;;;;;;;4.83;2.93;;;5.50;99.90;;;;;;5078529;28;20499;-64
2023/03/04 08:31:15;;;;;;;2.77;1.60;;;5.60;99.90;;;;;;5078623;28;20461;-62
2023/03/04 08:33:43;;;;;;;5.83;1.77;;;5.70;99.90;;;;;;5077857;28;20467;-58
2023/03/04 08:36:10;;;;;;;9.40;2.40;;;5.60;99.90;;;;;;5078655;28;20476;-62
2023/03/04 08:38:40;;;;;;;2.17;1.20;;;5.70;99.90;;;;;;5078073;28;20499;-66
2023/03/04 08:41:07;;;;;;;2.23;1.90;;;5.70;99.90;;;;;;5078085;28;20475;-62
2023/03/04 08:43:35;;;;;;;1.97;1.80;;;5.70;99.90;;;;;;5078222;28;20440;-61
2023/03/04 08:46:02;;;;;;;3.40;1.40;;;5.60;99.90;;;;;;5078397;28;20487;-61
2023/03/04 08:48:32;;;;;;;5.83;1.50;;;5.70;99.90;;;;;;5078025;28;20435;-65
2023/03/04 08:50:59;;;;;;;2.20;0.97;;;5.70;99.90;;;;;;5078047;28;20471;-63
2023/03/04 08:53:26;;;;;;;2.13;1.90;;;5.70;99.90;;;;;;5078332;28;20451;-63
2023/03/04 08:55:53;;;;;;;4.20;2.43;;;5.80;99.90;;;;;;5078824;28;20454;-60
2023/03/04 08:58:20;;;;;;;4.33;1.60;;;5.90;99.90;;;;;;5078294;28;20478;-58
2023/03/04 09:00:50;;;;;;;3.87;1.53;;;6.00;99.90;;;;;;5079119;28;20435;-60
2023/03/04 09:03:19;;;;;;;2.43;0.97;;;6.00;99.90;;;;;;5078953;28;20460;-62
2023/03/04 09:05:46;;;;;;;10.47;3.13;;;6.10;99.90;;;;;;5079447;28;20450;-58
2023/03/04 09:08:13;;;;;;;4.97;2.67;;;6.10;99.90;;;;;;5079048;28;20467;-62
2023/03/04 09:10:40;;;;;;;6.00;1.63;;;6.20;99.90;;;;;;5078850;28;20471;-63
2023/03/04 09:13:10;;;;;;;3.80;1.07;;;6.20;99.90;;;;;;5078811;28;20446;-63
2023/03/04 09:15:37;;;;;;;3.07;1.80;;;6.30;99.90;;;;;;5078215;28;20634;-57
2023/03/04 09:18:06;;;;;;;3.07;1.70;;;6.40;99.90;;;;;;5078403;28;20513;-60
2023/03/04 09:20:33;;;;;;;1.70;1.00;;;6.50;99.90;;;;;;5078266;28;20437;-61
2023/03/04 09:23:02;;;;;;;2.00;1.47;;;6.50;99.90;;;;;;5078149;28;20463;-67
2023/03/04 09:25:28;;;;;;;5.47;1.20;;;6.60;99.90;;;;;;5078212;28;20478;-62
2023/03/04 09:27:55;;;;;;;6.77;2.00;;;6.60;99.90;;;;;;5078156;28;20474;-59
2023/03/04 09:30:22;;;;;;;5.13;2.57;;;6.70;99.90;;;;;;5078720;28;20478;-65
2023/03/04 09:32:49;;;;;;;9.03;2.03;;;6.80;99.90;;;;;;5078915;28;20440;-63
2023/03/04 09:35:18;;;;;;;2.60;1.83;;;6.70;99.90;;;;;;5078437;28;20450;-63
2023/03/04 09:37:45;;;;;;;2.87;1.60;;;6.60;99.90;;;;;;5078220;28;20477;-62
2023/03/04 09:40:19;;;;;;;3.97;1.87;;;6.60;99.90;;;;;;5077791;28;20447;-60
2023/03/04 09:42:50;;;;;;;2.90;1.73;;;6.60;99.90;;;;;;5077759;28;20455;-64
2023/03/04 09:45:20;;;;;;;7.17;1.50;;;6.60;99.90;;;;;;5077928;28;20451;-61
2023/03/04 09:47:49;;;;;;;4.70;1.53;;;6.70;99.90;;;;;;5077225;28;20459;-58
2023/03/04 09:50:19;;;;;;;5.97;1.73;;;6.80;99.90;;;;;;5078032;28;20431;-64
2023/03/04 09:53:01;;;;;;;1.50;1.10;;;6.90;99.90;;;;;;5077762;28;20463;-62
2023/03/04 09:55:35;;;;;;;1.30;0.93;;;6.80;99.90;;;;;;5077403;28;20420;-61
2023/03/04 09:58:14;;;;;;;3.07;1.50;;;6.80;99.90;;;;;;5076747;28;20498;-65
2023/03/04 10:00:44;;;;;;;2.73;1.67;;;6.90;99.90;;;;;;5077215;28;20423;-66
2023/03/04 10:03:16;;;;;;;8.30;1.43;;;6.90;99.90;;;;;;5077196;28;20411;-62
2023/03/04 10:05:50;;;;;;;3.87;1.10;;;6.90;99.90;;;;;;5076481;28;20427;-62
2023/03/04 10:08:33;;;;;;;4.20;1.33;;;6.90;99.90;;;;;;5077598;28;20422;-58
2023/03/04 10:11:01;;;;;;;1.67;1.00;;;6.90;99.90;;;;;;5078056;28;20459;-58
2023/03/04 10:13:36;;;;;;;4.07;1.33;;;6.90;99.90;;;;;;5077486;28;20431;-62
2023/03/04 10:16:08;;;;;;;8.67;1.97;;;6.90;99.90;;;;;;5077647;28;20477;-62
2023/03/04 10:18:39;;;;;;;10.43;1.60;;;6.80;99.90;;;;;;5077495;28;20451;-58
2023/03/04 10:21:14;;;;;;;4.90;2.17;;;6.90;99.90;;;;;;5078062;28;20466;-62
2023/03/04 10:23:41;;;;;;;4.20;1.20;;;6.90;99.90;;;;;;5077613;28;20454;-59
2023/03/04 10:26:13;;;;;;;3.87;1.30;;;7.00;99.90;;;;;;5077259;28;20475;-62
2023/03/04 10:28:41;;;;;;;3.47;1.40;;;7.10;99.90;;;;;;5076350;28;20473;-60
2023/03/04 10:31:15;;;;;;;9.13;1.37;;;7.20;99.90;;;;;;5076517;28;20454;-62
2023/03/04 10:33:43;;;;;;;7.37;1.33;;;7.20;99.90;;;;;;5076669;28;20446;-63
2023/03/04 10:36:30;;;;;;;2.53;2.03;;;7.30;99.90;;;;;;5076328;28;20427;-63
2023/03/04 10:39:02;;;;;;;5.70;1.77;;;7.20;99.90;;;;;;5074733;28;20598;-62
2023/03/04 10:41:31;;;;;;;3.27;2.40;;;7.20;99.90;;;;;;5075062;28;20467;-60
2023/03/04 10:44:02;;;;;;;11.70;1.90;;;7.10;99.90;;;;;;5075065;28;20478;-62
2023/03/04 10:46:30;;;;;;;9.20;2.00;;;7.10;99.90;;;;;;5075427;28;20430;-61
2023/03/04 10:48:57;;;;;;;4.20;1.30;;;7.10;99.90;;;;;;5075489;28;20455;-60
2023/03/04 10:51:28;;;;;;;5.20;1.20;;;7.10;99.90;;;;;;5076138;28;20451;-59
2023/03/04 10:53:58;;;;;;;4.73;1.30;;;7.20;99.90;;;;;;5076489;28;20415;-57
2023/03/04 10:56:37;;;;;;;6.83;1.53;;;7.40;99.90;;;;;;5074695;28;20474;-62
2023/03/04 10:59:49;;;;;;;2.70;1.20;;;7.40;99.90;;;;;;5075195;28;20495;-61
2023/03/04 11:02:21;;;;;;;7.70;1.07;;;7.50;99.90;;;;;;5062230;28;20478;-60
2023/03/04 11:04:53;;;;;;;11.57;1.33;;;7.50;99.90;;;;;;5075834;28;20430;-61
2023/03/04 11:07:23;;;;;;;5.83;1.50;;;7.60;99.90;;;;;;5074922;28;20424;-59
2023/03/04 11:09:50;;;;;;;9.00;1.80;;;7.50;99.90;;;;;;5075961;28;20474;-59
2023/03/04 11:12:21;;;;;;;4.60;1.37;;;7.40;99.90;;;;;;5074303;28;20455;-61
2023/03/04 11:14:49;;;;;;;5.60;1.43;;;7.50;99.90;;;;;;5076034;28;20431;-62
2023/03/04 11:17:22;;;;;;;2.97;1.73;;;7.50;99.90;;;;;;5074363;28;20471;-60
2023/03/04 11:19:55;;;;;;;4.83;1.17;;;7.60;99.90;;;;;;5075469;28;20426;-63
2023/03/04 11:22:25;;;;;;;15.17;3.07;;;7.60;99.90;;;;;;5075573;28;20503;-58
2023/03/04 11:24:59;;;;;;;5.33;1.27;;;7.50;99.90;;;;;;5075974;28;20408;-53
2023/03/04 11:27:38;;;;;;;10.70;2.03;;;7.60;99.90;;;;;;5076457;28;20439;-58
2023/03/04 11:30:24;;;;;;;3.47;1.53;;;7.50;99.90;;;;;;5076889;28;20431;-60
2023/03/04 11:32:56;;;;;;;16.33;2.30;;;7.60;99.90;;;;;;5076554;28;20419;-60
2023/03/04 11:35:28;;;;;;;7.90;1.30;;;7.60;99.90;;;;;;5076655;28;20442;-61
2023/03/04 11:38:02;;;;;;;4.00;1.63;;;7.70;99.90;;;;;;5075132;28;20459;-59
2023/03/04 11:40:35;;;;;;;8.07;2.03;;;7.60;99.90;;;;;;5074530;28;20470;-61
2023/03/04 11:43:07;;;;;;;8.40;2.00;;;7.80;99.90;;;;;;5075368;28;20424;-63
2023/03/04 11:45:59;;;;;;;4.50;1.27;;;7.80;99.90;;;;;;5075333;28;20463;-62
2023/03/04 11:48:41;;;;;;;9.00;2.17;;;7.80;99.90;;;;;;5074465;28;20510;-60
2023/03/04 11:51:18;;;;;;;13.20;2.30;;;7.60;99.90;;;;;;5075374;28;20457;-55
2023/03/04 11:53:54;;;;;;;3.60;1.77;;;7.50;99.90;;;;;;5074753;28;20796;-59
2023/03/04 11:56:32;;;;;;;13.40;2.30;;;7.40;99.90;;;;;;5075101;28;20509;-57
2023/03/04 11:59:45;;;;;;;3.13;2.10;;;7.40;99.90;;;;;;5075954;28;20451;-59
2023/03/04 12:02:15;;;;;;;4.13;1.60;;;7.40;99.90;;;;;;5029439;28;20443;-63
2023/03/04 12:05:09;;;;;;;5.63;2.40;;;7.40;99.90;;;;;;5075531;28;20457;-61
2023/03/04 12:08:00;;;;;;;14.10;2.13;;;7.40;99.90;;;;;;5077502;28;20470;-55
2023/03/04 12:10:35;;;;;;;3.10;1.50;;;7.30;99.90;;;;;;5067852;28;20430;-62
2023/03/04 12:13:35;;;;;;;4.70;2.13;;;7.30;99.90;;;;;;5079180;28;20462;-62
2023/03/04 12:16:11;;;;;;;11.93;2.07;;;7.30;99.90;;;;;;5066265;28;20455;-59
2023/03/04 12:18:50;;;;;;;7.80;2.67;;;7.30;99.90;;;;;;5078436;28;20532;-62
2023/03/04 12:21:32;;;;;;;3.03;2.00;;;7.30;99.90;;;;;;5078488;28;20427;-59
2023/03/04 12:24:25;;;;;;;7.53;1.93;;;7.40;99.90;;;;;;5078836;28;20430;-61
2023/03/04 12:26:58;;;;;;;4.33;1.47;;;7.40;99.90;;;;;;5070880;28;20438;-55
2023/03/04 12:29:34;;;;;;;10.03;2.13;;;7.30;99.90;;;;;;5078983;28;20455;-62
2023/03/04 12:32:10;;;;;;;7.87;1.73;;;7.30;99.90;;;;;;5078599;28;20419;-64
2023/03/04 12:35:00;;;;;;;9.40;2.10;;;7.40;99.90;;;;;;5078437;28;20423;-60
2023/03/04 12:38:16;;;;;;;2.93;1.80;;;7.40;99.90;;;;;;5078761;28;20461;-59
2023/03/04 12:40:49;;;;;;;6.50;1.40;;;7.40;99.90;;;;;;5059945;28;20515;-61
2023/03/04 12:43:40;;;;;;;5.37;2.00;;;7.40;99.90;;;;;;5078854;28;20428;-61
2023/03/04 12:46:16;;;;;;;8.47;1.83;;;7.40;99.90;;;;;;5078314;28;20512;-61
2023/03/04 12:48:54;;;;;;;5.20;1.83;;;7.60;99.90;;;;;;5078797;28;20415;-63
2023/03/04 12:51:31;;;;;;;4.37;1.57;;;7.60;99.90;;;;;;5077877;28;20452;-59
2023/03/04 12:54:18;;;;;;;4.43;1.70;;;7.60;99.90;;;;;;5078407;28;20438;-64
2023/03/04 12:56:50;;;;;;;4.40;1.90;;;7.50;99.90;;;;;;5077873;28;20459;-61
2023/03/04 12:59:20;;;;;;;3.50;1.93;;;7.50;99.90;;;;;;5077938;28;20482;-62
2023/03/04 13:01:56;;;;;;;4.30;1.47;;;7.40;99.90;;;;;;5077900;28;20466;-61
2023/03/04 13:04:30;;;;;;;16.03;2.07;;;7.40;99.90;;;;;;5077640;28;20509;-61
2023/03/04 13:07:10;;;;;;;9.87;1.87;;;7.30;99.90;;;;;;5077817;28;20446;-59